createdAt,value
2023-02-26T00:00:37.229Z,1.3
2023-02-26T00:01:44.216Z,1.2
2023-02-26T00:02:51.766Z,1.2
2023-02-26T00:04:01.048Z,1.1
2023-02-26T00:05:08.477Z,1.1
2023-02-26T00:06:15.497Z,1
2023-02-26T00:07:22.371Z,1.1
2023-02-26T00:08:31.635Z,1.1
2023-02-26T00:09:39.455Z,1.2
2023-02-26T00:10:47.496Z,1.2
2023-02-26T00:11:54.414Z,1.1
2023-02-26T00:13:01.797Z,0.8
2023-02-26T00:14:08.717Z,1
2023-02-26T00:15:15.766Z,1.1
2023-02-26T00:16:23.826Z,1.2
2023-02-26T00:17:33.169Z,1.2
2023-02-26T00:18:47.213Z,1.4
2023-02-26T00:19:54.199Z,1.3
2023-02-26T00:21:06.763Z,1.3
2023-02-26T00:22:13.732Z,1.4
2023-02-26T00:23:21.678Z,1.4
2023-02-26T00:24:28.632Z,1.3
2023-02-26T00:25:37.115Z,1.2
2023-02-26T00:26:44.048Z,1.2
2023-02-26T00:27:52.530Z,1.3
2023-02-26T00:28:59.617Z,1
2023-02-26T00:30:06.415Z,1
2023-02-26T00:31:13.642Z,0.9
2023-02-26T00:32:21.679Z,0.8
2023-02-26T00:33:28.461Z,0.9
2023-02-26T00:34:35.618Z,0.8
2023-02-26T00:35:42.781Z,1
2023-02-26T00:36:49.740Z,1.2
2023-02-26T00:38:01.862Z,0.8
2023-02-26T00:39:14.956Z,1
2023-02-26T00:40:29.380Z,1
2023-02-26T00:41:42.415Z,0.8
2023-02-26T00:42:52.660Z,1
2023-02-26T00:43:59.718Z,1.2
2023-02-26T00:45:06.738Z,1.2
2023-02-26T00:46:15.965Z,1.1
2023-02-26T00:47:27.940Z,1.2
2023-02-26T00:48:45.084Z,1
2023-02-26T00:49:54.365Z,0.9
2023-02-26T00:51:11.525Z,1
2023-02-26T00:52:25.462Z,1.1
2023-02-26T00:53:32.448Z,0.8
2023-02-26T00:54:39.555Z,1
2023-02-26T00:55:47.719Z,0.9
2023-02-26T00:56:54.894Z,0.9
2023-02-26T00:58:05.911Z,1
2023-02-26T00:59:12.885Z,0.9
2023-02-26T01:00:19.911Z,0.9
2023-02-26T01:01:26.987Z,0.9
2023-02-26T01:02:33.893Z,1
2023-02-26T01:03:41.821Z,1
2023-02-26T01:04:49.560Z,1
2023-02-26T01:05:56.539Z,1.1
2023-02-26T01:07:03.630Z,1
2023-02-26T01:08:11.514Z,1.2
2023-02-26T01:09:26.571Z,1
2023-02-26T01:10:36.136Z,0.8
2023-02-26T01:11:43.144Z,0.7
2023-02-26T01:12:50.180Z,0.8
2023-02-26T01:13:57.194Z,0.9
2023-02-26T01:15:05.323Z,0.8
2023-02-26T01:16:14.949Z,1
2023-02-26T01:17:21.772Z,0.8
2023-02-26T01:18:30.280Z,0.7
2023-02-26T01:19:40.820Z,0.6
2023-02-26T01:20:52.996Z,0.7
2023-02-26T01:22:00.015Z,0.6
2023-02-26T01:23:07.842Z,0.8
2023-02-26T01:24:24.119Z,0.9
2023-02-26T01:25:32.351Z,0.9
2023-02-26T01:26:44.886Z,0.9
2023-02-26T01:27:53.960Z,0.9
2023-02-26T01:29:02.947Z,0.8
2023-02-26T01:30:10.015Z,0.7
2023-02-26T01:31:20.343Z,0.7
2023-02-26T01:32:35.217Z,0.7
2023-02-26T01:33:47.217Z,0.7
2023-02-26T01:34:57.056Z,0.8
2023-02-26T01:36:09.112Z,0.8
2023-02-26T01:37:16.057Z,0.8
2023-02-26T01:38:28.207Z,0.5
2023-02-26T01:39:47.153Z,0.8
2023-02-26T01:40:57.097Z,0.9
2023-02-26T01:42:09.113Z,0.8
2023-02-26T01:43:23.381Z,0.8
2023-02-26T01:44:35.949Z,0.9
2023-02-26T01:45:46.614Z,0.9
2023-02-26T01:46:57.282Z,0.7
2023-02-26T01:48:14.504Z,0.5
2023-02-26T01:49:24.351Z,0.5
2023-02-26T01:50:31.362Z,0.5
2023-02-26T01:51:39.403Z,0.4
2023-02-26T01:52:51.435Z,0.5
2023-02-26T01:54:06.591Z,0.6
2023-02-26T01:55:14.680Z,0.7
2023-02-26T01:56:24.824Z,0.9
2023-02-26T01:57:32.974Z,0.8
2023-02-26T01:58:40.026Z,0.6
2023-02-26T01:59:48.626Z,0.6
2023-02-26T02:00:56.641Z,0.7
2023-02-26T02:02:03.828Z,0.8
2023-02-26T02:03:11.616Z,0.6
2023-02-26T02:04:18.712Z,0.4
2023-02-26T02:05:25.700Z,0.5
2023-02-26T02:06:35.613Z,0.7
2023-02-26T02:07:42.496Z,0.7
2023-02-26T02:08:50.039Z,0.8
2023-02-26T02:09:58.452Z,0.7
2023-02-26T02:11:05.378Z,0.7
2023-02-26T02:12:14.341Z,0.7
2023-02-26T02:13:26.357Z,0.6
2023-02-26T02:14:33.372Z,0.6
2023-02-26T02:15:50.730Z,0.7
2023-02-26T02:17:02.960Z,0.8
2023-02-26T02:18:17.655Z,0.6
2023-02-26T02:19:24.660Z,0.6
2023-02-26T02:20:42.004Z,0.7
2023-02-26T02:21:55.600Z,0.8
2023-02-26T02:23:13.792Z,0.8
2023-02-26T02:24:22.983Z,1
2023-02-26T02:25:40.125Z,0.9
2023-02-26T02:26:53.156Z,1
2023-02-26T02:28:02.933Z,0.8
2023-02-26T02:29:17.697Z,0.9
2023-02-26T02:30:29.716Z,0.8
2023-02-26T02:31:44.143Z,0.8
2023-02-26T02:32:56.077Z,0.8
2023-02-26T02:34:05.417Z,0.8
2023-02-26T02:35:21.242Z,0.9
2023-02-26T02:36:30.089Z,0.8
2023-02-26T02:37:47.214Z,0.8
2023-02-26T02:38:54.061Z,0.9
2023-02-26T02:40:02.035Z,0.9
2023-02-26T02:41:11.625Z,0.9
2023-02-26T02:42:18.495Z,1
2023-02-26T02:43:26.604Z,1
2023-02-26T02:44:33.708Z,0.6
2023-02-26T02:45:44.204Z,0.8
2023-02-26T02:46:58.963Z,0.9
2023-02-26T02:48:05.829Z,0.9
2023-02-26T02:49:15.321Z,0.8
2023-02-26T02:50:27.401Z,0.9
2023-02-26T02:51:35.238Z,0.9
2023-02-26T02:52:48.665Z,0.7
2023-02-26T02:54:01.244Z,0.7
2023-02-26T02:55:08.252Z,0.7
2023-02-26T02:56:21.826Z,0.9
2023-02-26T02:57:32.011Z,0.6
2023-02-26T02:58:38.839Z,0.6
2023-02-26T02:59:45.770Z,0.8
2023-02-26T03:00:52.710Z,0.6
2023-02-26T03:02:00.550Z,0.7
2023-02-26T03:03:07.542Z,0.7
2023-02-26T03:04:19.633Z,0.9
2023-02-26T03:05:26.485Z,1
2023-02-26T03:06:34.023Z,0.9
2023-02-26T03:07:41.639Z,0.7
2023-02-26T03:08:54.986Z,0.7
2023-02-26T03:10:01.941Z,0.7
2023-02-26T03:11:08.919Z,0.5
2023-02-26T03:12:15.755Z,0.6
2023-02-26T03:13:22.598Z,0.6
2023-02-26T03:14:29.613Z,0.7
2023-02-26T03:15:36.570Z,0.7
2023-02-26T03:16:48.672Z,0.5
2023-02-26T03:18:00.755Z,0.4
2023-02-26T03:19:15.715Z,0.5
2023-02-26T03:20:30.771Z,0.5
2023-02-26T03:21:42.103Z,0.5
2023-02-26T03:22:58.125Z,0.3
2023-02-26T03:24:07.851Z,0.3
2023-02-26T03:25:19.954Z,0.2
2023-02-26T03:26:31.267Z,0.5
2023-02-26T03:27:43.267Z,0.6
2023-02-26T03:28:53.044Z,0.6
2023-02-26T03:30:06.646Z,0.8
2023-02-26T03:31:18.705Z,0.9
2023-02-26T03:32:34.034Z,0.9
2023-02-26T03:33:42.179Z,1
2023-02-26T03:35:00.988Z,0.9
2023-02-26T03:36:13.169Z,0.7
2023-02-26T03:37:24.243Z,0.9
2023-02-26T03:38:37.249Z,0.9
2023-02-26T03:39:49.184Z,0.9
2023-02-26T03:40:57.969Z,0.8
2023-02-26T03:42:05.852Z,0.8
2023-02-26T03:43:20.647Z,0.9
2023-02-26T03:44:33.966Z,0.6
2023-02-26T03:45:40.988Z,0.7
2023-02-26T03:46:47.708Z,0.8
2023-02-26T03:47:58.356Z,0.7
2023-02-26T03:49:05.719Z,0.5
2023-02-26T03:50:12.533Z,0.6
2023-02-26T03:51:27.250Z,0.6
2023-02-26T03:52:36.498Z,0.6
2023-02-26T03:53:43.373Z,0.7
2023-02-26T03:54:54.805Z,0.7
2023-02-26T03:56:02.408Z,0.7
2023-02-26T03:57:12.252Z,0.6
2023-02-26T03:58:19.182Z,0.3
2023-02-26T03:59:29.448Z,0.6
2023-02-26T04:00:36.420Z,0.5
2023-02-26T04:01:43.316Z,0.7
2023-02-26T04:02:55.553Z,0.8
2023-02-26T04:04:02.615Z,0.7
2023-02-26T04:05:09.564Z,0.6
2023-02-26T04:06:19.569Z,0.8
2023-02-26T04:07:26.757Z,0.8
2023-02-26T04:08:33.900Z,0.8
2023-02-26T04:09:40.793Z,0.6
2023-02-26T04:10:47.776Z,0.6
2023-02-26T04:12:02.676Z,0.6
2023-02-26T04:13:09.748Z,0.8
2023-02-26T04:14:16.691Z,0.8
2023-02-26T04:15:23.673Z,0.7
2023-02-26T04:16:31.131Z,0.8
2023-02-26T04:17:38.036Z,0.6
2023-02-26T04:18:44.894Z,0.5
2023-02-26T04:19:51.808Z,0.5
2023-02-26T04:20:58.705Z,0.6
2023-02-26T04:22:06.538Z,0.6
2023-02-26T04:23:13.405Z,0.8
2023-02-26T04:24:21.176Z,0.7
2023-02-26T04:25:29.037Z,0.7
2023-02-26T04:26:36.881Z,0.4
2023-02-26T04:27:46.596Z,0.7
2023-02-26T04:28:54.159Z,0.7
2023-02-26T04:30:01.310Z,0.9
2023-02-26T04:31:09.627Z,0.8
2023-02-26T04:32:15.549Z,0.6
2023-02-26T04:33:22.273Z,0.8
2023-02-26T04:34:29.248Z,0.7
2023-02-26T04:35:36.213Z,0.8
2023-02-26T04:36:45.371Z,0.8
2023-02-26T04:37:52.357Z,0.8
2023-02-26T04:39:01.002Z,0.8
2023-02-26T04:40:07.838Z,0.7
2023-02-26T04:41:15.030Z,0.8
2023-02-26T04:42:21.802Z,0.8
2023-02-26T04:43:28.683Z,0.8
2023-02-26T04:44:35.776Z,0.8
2023-02-26T04:45:44.035Z,0.7
2023-02-26T04:46:50.950Z,0.6
2023-02-26T04:48:00.516Z,0.5
2023-02-26T04:49:08.295Z,0.4
2023-02-26T04:50:15.116Z,0.5
2023-02-26T04:51:22.059Z,0.5
2023-02-26T04:52:28.948Z,0.3
2023-02-26T04:53:37.501Z,0.3
2023-02-26T04:54:45.884Z,0.5
2023-02-26T04:55:52.705Z,0.6
2023-02-26T04:56:59.569Z,0.6
2023-02-26T04:58:08.364Z,0.6
2023-02-26T04:59:15.275Z,0.8
2023-02-26T05:00:22.302Z,0.7
2023-02-26T05:01:29.306Z,0.6
2023-02-26T05:02:36.100Z,0.5
2023-02-26T05:03:44.596Z,0.6
2023-02-26T05:04:51.471Z,0.8
2023-02-26T05:05:58.308Z,0.8
2023-02-26T05:07:06.103Z,0.9
2023-02-26T05:08:13.028Z,0.8
2023-02-26T05:09:19.901Z,0.7
2023-02-26T05:10:26.779Z,0.8
2023-02-26T05:11:33.587Z,0.6
2023-02-26T05:12:40.424Z,0.6
2023-02-26T05:13:48.322Z,0.5
2023-02-26T05:14:56.630Z,0.6
2023-02-26T05:16:03.642Z,0.5
2023-02-26T05:17:11.382Z,0.5
2023-02-26T05:18:18.283Z,0.6
2023-02-26T05:19:25.185Z,0.5
2023-02-26T05:20:32.121Z,0.5
2023-02-26T05:21:39.939Z,0.7
2023-02-26T05:22:47.943Z,0.6
2023-02-26T05:23:54.903Z,0.5
2023-02-26T05:25:01.838Z,0.6
2023-02-26T05:26:09.313Z,0.4
2023-02-26T05:27:16.280Z,0.3
2023-02-26T05:28:23.141Z,0.3
2023-02-26T05:29:29.985Z,0.5
2023-02-26T05:30:37.817Z,0.3
2023-02-26T05:31:45.650Z,0.2
2023-02-26T05:32:52.280Z,0.5
2023-02-26T05:34:00.196Z,0.5
2023-02-26T05:35:07.379Z,0.7
2023-02-26T05:36:14.332Z,0.6
2023-02-26T05:37:21.328Z,0.8
2023-02-26T05:38:30.046Z,0.9
2023-02-26T05:39:36.905Z,0.9
2023-02-26T05:40:46.498Z,0.8
2023-02-26T05:41:53.473Z,0.6
2023-02-26T05:43:01.491Z,0.6
2023-02-26T05:44:09.449Z,0.7
2023-02-26T05:45:19.071Z,0.8
2023-02-26T05:46:28.281Z,0.6
2023-02-26T05:47:34.781Z,0.7
2023-02-26T05:48:45.667Z,0.5
2023-02-26T05:49:50.972Z,0.4
2023-02-26T05:50:58.012Z,0.4
2023-02-26T05:52:04.824Z,0.4
2023-02-26T05:53:11.774Z,0.4
2023-02-26T05:54:20.807Z,0.4
2023-02-26T05:55:27.711Z,0.5
2023-02-26T05:56:35.294Z,0.2
2023-02-26T05:57:43.118Z,0.5
2023-02-26T05:58:49.966Z,0.6
2023-02-26T05:59:56.861Z,0.6
2023-02-26T06:01:03.828Z,0.7
2023-02-26T06:02:10.748Z,0.8
2023-02-26T06:03:18.272Z,0.9
2023-02-26T06:04:28.412Z,0.9
2023-02-26T06:05:38.295Z,0.8
2023-02-26T06:06:45.078Z,0.8
2023-02-26T06:07:52.516Z,0.8
2023-02-26T06:08:59.420Z,0.9
2023-02-26T06:10:06.492Z,0.8
2023-02-26T06:11:14.746Z,0.9
2023-02-26T06:12:21.707Z,1
2023-02-26T06:13:28.661Z,1
2023-02-26T06:14:35.582Z,0.9
2023-02-26T06:15:42.513Z,0.9
2023-02-26T06:16:49.472Z,0.8
2023-02-26T06:17:56.703Z,0.6
2023-02-26T06:19:03.540Z,0.7
2023-02-26T06:20:12.266Z,0.5
2023-02-26T06:21:19.454Z,0.4
2023-02-26T06:22:27.815Z,0.6
2023-02-26T06:23:35.030Z,0.6
2023-02-26T06:24:42.888Z,0.3
2023-02-26T06:25:50.278Z,0.4
2023-02-26T06:26:58.458Z,0.5
2023-02-26T06:28:06.230Z,0.5
2023-02-26T06:29:13.976Z,0.6
2023-02-26T06:30:20.837Z,0.7
2023-02-26T06:31:29.351Z,0.9
2023-02-26T06:32:36.757Z,0.7
2023-02-26T06:33:44.895Z,0.6
2023-02-26T06:34:51.970Z,0.8
2023-02-26T06:35:58.851Z,0.6
2023-02-26T06:37:05.672Z,0.6
2023-02-26T06:38:13.579Z,0.5
2023-02-26T06:39:20.468Z,0.5
2023-02-26T06:40:29.177Z,0.6
2023-02-26T06:41:36.452Z,0.6
2023-02-26T06:42:46.309Z,0.4
2023-02-26T06:43:54.223Z,0.3
2023-02-26T06:45:01.186Z,0.5
2023-02-26T06:46:08.251Z,0.5
2023-02-26T06:47:15.383Z,0.6
2023-02-26T06:48:24.834Z,0.6
2023-02-26T06:49:32.682Z,0.6
2023-02-26T06:50:40.032Z,0.7
2023-02-26T06:51:46.940Z,0.7
2023-02-26T06:52:55.702Z,0.9
2023-02-26T06:54:02.658Z,0.6
2023-02-26T06:55:09.613Z,0.7
2023-02-26T06:56:16.490Z,0.8
2023-02-26T06:57:25.377Z,0.8
2023-02-26T06:58:32.335Z,0.7
2023-02-26T06:59:40.784Z,0.7
2023-02-26T07:00:47.877Z,0.7
2023-02-26T07:01:58.145Z,0.6
2023-02-26T07:03:04.982Z,0.5
2023-02-26T07:04:20.331Z,0.5
2023-02-26T07:05:25.338Z,0.4
2023-02-26T07:06:32.258Z,0.6
2023-02-26T07:07:39.995Z,0.7
2023-02-26T07:08:46.974Z,0.6
2023-02-26T07:09:53.849Z,0.8
2023-02-26T07:11:00.854Z,0.9
2023-02-26T07:12:07.949Z,0.6
2023-02-26T07:13:15.558Z,0.5
2023-02-26T07:14:22.427Z,0.4
2023-02-26T07:15:29.321Z,0.5
2023-02-26T07:16:36.373Z,0.5
2023-02-26T07:17:43.302Z,0.7
2023-02-26T07:18:50.093Z,0.8
2023-02-26T07:19:57.046Z,0.9
2023-02-26T07:21:04.921Z,0.9
2023-02-26T07:22:11.718Z,1.2
2023-02-26T07:23:19.866Z,1
2023-02-26T07:24:27.089Z,1.1
2023-02-26T07:25:33.940Z,1.2
2023-02-26T07:26:40.888Z,1.2
2023-02-26T07:27:48.896Z,1.1
2023-02-26T07:28:55.804Z,1.2
2023-02-26T07:30:02.647Z,1
2023-02-26T07:31:09.974Z,0.8
2023-02-26T07:32:17.284Z,1.1
2023-02-26T07:33:24.101Z,1
2023-02-26T07:34:30.974Z,1.2
2023-02-26T07:35:38.027Z,1.3
2023-02-26T07:36:46.754Z,1.3
2023-02-26T07:37:53.750Z,0.8
2023-02-26T07:39:03.907Z,1
2023-02-26T07:40:11.125Z,0.9
2023-02-26T07:41:18.001Z,0.8
2023-02-26T07:42:25.766Z,1
2023-02-26T07:43:32.723Z,0.9
2023-02-26T07:44:40.740Z,1
2023-02-26T07:45:47.627Z,1.1
2023-02-26T07:46:54.454Z,0.9
2023-02-26T07:48:02.252Z,1
2023-02-26T07:49:09.056Z,1
2023-02-26T07:50:15.913Z,0.8
2023-02-26T07:51:23.164Z,0.7
2023-02-26T07:52:29.897Z,0.9
2023-02-26T07:53:39.207Z,1
2023-02-26T07:54:46.003Z,1
2023-02-26T07:55:55.474Z,1
2023-02-26T07:57:02.528Z,0.9
2023-02-26T07:58:09.514Z,1
2023-02-26T07:59:16.476Z,1
2023-02-26T08:00:26.892Z,1
2023-02-26T08:01:34.677Z,0.9
2023-02-26T08:02:43.725Z,0.8
2023-02-26T08:03:50.551Z,0.9
2023-02-26T08:04:57.755Z,1
2023-02-26T08:06:04.800Z,0.8
2023-02-26T08:07:12.573Z,0.8
2023-02-26T08:08:21.729Z,0.5
2023-02-26T08:09:28.735Z,0.5
2023-02-26T08:10:35.808Z,0.4
2023-02-26T08:11:42.672Z,0.3
2023-02-26T08:12:49.528Z,0.2
2023-02-26T08:13:56.373Z,0.1
2023-02-26T08:15:04.005Z,0
2023-02-26T08:16:11.236Z,0.1
2023-02-26T08:17:19.529Z,-0.3
2023-02-26T08:18:26.406Z,0
2023-02-26T08:19:33.242Z,0.1
2023-02-26T08:20:40.049Z,0.2
2023-02-26T08:21:50.772Z,0.3
2023-02-26T08:22:56.045Z,0.2
2023-02-26T08:24:03.225Z,0.4
2023-02-26T08:25:10.356Z,0.1
2023-02-26T08:26:17.380Z,0.3
2023-02-26T08:27:24.296Z,0.4
2023-02-26T08:28:32.717Z,0.4
2023-02-26T08:29:39.639Z,0.5
2023-02-26T08:30:46.762Z,0.4
2023-02-26T08:31:53.856Z,0.6
2023-02-26T08:33:00.508Z,0.7
2023-02-26T08:34:07.476Z,0.7
2023-02-26T08:35:14.408Z,0.8
2023-02-26T08:36:21.373Z,0.8
2023-02-26T08:37:28.509Z,0.9
2023-02-26T08:38:35.484Z,1.2
2023-02-26T08:39:42.373Z,1.3
2023-02-26T08:40:50.638Z,1.4
2023-02-26T08:41:57.508Z,1.4
2023-02-26T08:43:05.570Z,1.4
2023-02-26T08:44:13.670Z,1.5
2023-02-26T08:45:20.709Z,1.6
2023-02-26T08:46:30.022Z,1.8
2023-02-26T08:47:39.521Z,1.8
2023-02-26T08:48:43.409Z,1.9
2023-02-26T08:49:50.304Z,1.8
2023-02-26T08:50:58.920Z,1.6
2023-02-26T08:52:06.318Z,1.5
2023-02-26T08:53:13.686Z,1.4
2023-02-26T08:54:20.609Z,1.5
2023-02-26T08:55:30.796Z,1.6
2023-02-26T08:56:37.646Z,1.7
2023-02-26T08:57:44.506Z,1.7
2023-02-26T08:58:51.323Z,1.4
2023-02-26T08:59:58.360Z,1.3
2023-02-26T09:01:05.450Z,1.3
2023-02-26T09:02:12.437Z,1.3
2023-02-26T09:03:19.279Z,1.3
2023-02-26T09:04:26.137Z,1.4
2023-02-26T09:05:33.045Z,1.5
2023-02-26T09:06:39.921Z,1.7
2023-02-26T09:07:46.650Z,1.7
2023-02-26T09:08:53.463Z,1.6
2023-02-26T09:10:00.302Z,1.5
2023-02-26T09:11:07.378Z,1.5
2023-02-26T09:12:14.272Z,1.5
2023-02-26T09:13:21.073Z,1.3
2023-02-26T09:14:27.962Z,1.2
2023-02-26T09:15:34.816Z,1
2023-02-26T09:16:41.726Z,1.1
2023-02-26T09:17:48.631Z,0.9
2023-02-26T09:18:55.598Z,0.8
2023-02-26T09:20:02.400Z,1.1
2023-02-26T09:21:09.345Z,1.1
2023-02-26T09:22:16.212Z,1.2
2023-02-26T09:23:23.056Z,1.3
2023-02-26T09:24:30.033Z,1.2
2023-02-26T09:25:36.892Z,1.3
2023-02-26T09:26:43.774Z,1.4
2023-02-26T09:27:50.531Z,1.6
2023-02-26T09:28:57.343Z,1.6
2023-02-26T09:30:04.211Z,1.7
2023-02-26T09:31:11.394Z,1.9
2023-02-26T09:32:18.350Z,1.9
2023-02-26T09:33:25.101Z,1.9
2023-02-26T09:34:32.027Z,1.9
2023-02-26T09:35:39.010Z,1.5
2023-02-26T09:36:45.847Z,1.6
2023-02-26T09:37:52.736Z,1.6
2023-02-26T09:38:59.605Z,1.4
2023-02-26T09:40:06.478Z,1.6
2023-02-26T09:41:21.492Z,1.9
2023-02-26T09:42:28.334Z,2
2023-02-26T09:43:35.130Z,2.1
2023-02-26T09:44:42.220Z,2
2023-02-26T09:45:49.305Z,2
2023-02-26T09:46:56.163Z,1.7
2023-02-26T09:48:08.213Z,1.7
2023-02-26T09:49:15.100Z,1.8
2023-02-26T09:50:21.981Z,1.8
2023-02-26T09:51:31.853Z,1.9
2023-02-26T09:52:38.733Z,2
2023-02-26T09:53:48.646Z,1.7
2023-02-26T09:54:55.527Z,1.8
2023-02-26T09:56:07.592Z,2.1
2023-02-26T09:57:14.479Z,2.6
2023-02-26T09:58:31.817Z,2.6
2023-02-26T09:59:38.635Z,2.5
2023-02-26T10:00:45.536Z,2.5
2023-02-26T10:02:02.932Z,2.5
2023-02-26T10:03:20.090Z,2.2
2023-02-26T10:04:37.374Z,2.3
2023-02-26T10:05:46.944Z,2.1
2023-02-26T10:07:04.171Z,2.4
2023-02-26T10:08:16.366Z,2.3
2023-02-26T10:09:23.380Z,2.2
2023-02-26T10:10:35.632Z,2.2
2023-02-26T10:11:52.871Z,2.1
2023-02-26T10:13:01.838Z,1.9
2023-02-26T10:14:08.616Z,2.1
2023-02-26T10:15:16.022Z,2.2
2023-02-26T10:16:27.247Z,2.1
2023-02-26T10:17:33.911Z,2
2023-02-26T10:18:48.713Z,1.7
2023-02-26T10:19:58.320Z,1.7
2023-02-26T10:21:06.386Z,1.7
2023-02-26T10:22:18.309Z,1.7
2023-02-26T10:23:25.161Z,1.7
2023-02-26T10:24:35.206Z,1.8
2023-02-26T10:25:42.814Z,1.7
2023-02-26T10:26:49.578Z,1.7
2023-02-26T10:28:00.680Z,1.8
2023-02-26T10:29:17.656Z,1.6
2023-02-26T10:30:29.567Z,1.6
2023-02-26T10:31:44.169Z,1.6
2023-02-26T10:33:01.133Z,1.8
2023-02-26T10:34:16.056Z,1.9
2023-02-26T10:35:32.988Z,1.9
2023-02-26T10:36:39.786Z,2
2023-02-26T10:37:56.648Z,1.8
2023-02-26T10:39:06.247Z,1.9
2023-02-26T10:40:19.176Z,1.8
2023-02-26T10:41:36.020Z,1.7
2023-02-26T10:42:42.906Z,1.7
2023-02-26T10:43:54.854Z,1.5
2023-02-26T10:45:06.722Z,1.6
2023-02-26T10:46:23.707Z,1.5
2023-02-26T10:47:38.419Z,1.7
2023-02-26T10:48:55.446Z,1.6
2023-02-26T10:50:12.409Z,1.6
2023-02-26T10:51:19.200Z,1.5
2023-02-26T10:52:26.903Z,1.6
2023-02-26T10:53:33.689Z,1.6
2023-02-26T10:54:40.621Z,1.6
2023-02-26T10:55:47.432Z,1.7
2023-02-26T10:56:55.543Z,1.8
2023-02-26T10:58:02.389Z,1.9
2023-02-26T10:59:16.431Z,1.9
2023-02-26T11:00:21.128Z,1.9
2023-02-26T11:01:28.455Z,2
2023-02-26T11:02:34.871Z,1.9
2023-02-26T11:03:44.747Z,1.8
2023-02-26T11:04:59.243Z,1.9
2023-02-26T11:05:58.584Z,1.8
2023-02-26T11:07:05.637Z,1.6
2023-02-26T11:08:13.324Z,1.6
2023-02-26T11:09:27.893Z,1.8
2023-02-26T11:10:39.957Z,1.9
2023-02-26T11:11:51.984Z,1.7
2023-02-26T11:12:58.844Z,1.3
2023-02-26T11:14:05.705Z,1.3
2023-02-26T11:15:12.561Z,1.4
2023-02-26T11:16:22.329Z,1.5
2023-02-26T11:17:29.123Z,1.3
2023-02-26T11:18:36.130Z,1
2023-02-26T11:19:48.060Z,0.7
2023-02-26T11:20:59.938Z,0.8
2023-02-26T11:22:06.818Z,0.6
2023-02-26T11:23:16.564Z,0.3
2023-02-26T11:24:24.179Z,0.4
2023-02-26T11:25:36.308Z,0
2023-02-26T11:26:42.992Z,0
2023-02-26T11:27:49.961Z,0.2
2023-02-26T11:28:56.768Z,0.2
2023-02-26T11:30:03.665Z,0.3
2023-02-26T11:31:15.833Z,0.2
2023-02-26T11:32:23.280Z,0.3
2023-02-26T11:33:33.101Z,0.3
2023-02-26T11:34:42.771Z,0.5
2023-02-26T11:35:49.623Z,0.7
2023-02-26T11:36:56.447Z,0.8
2023-02-26T11:38:03.529Z,0.9
2023-02-26T11:39:10.430Z,0.9
2023-02-26T11:40:18.118Z,0.8
2023-02-26T11:41:28.785Z,0.8
2023-02-26T11:42:35.526Z,0.9
2023-02-26T11:43:44.535Z,0.8
2023-02-26T11:44:49.221Z,0.9
2023-02-26T11:45:56.276Z,0.8
2023-02-26T11:47:03.095Z,0.9
2023-02-26T11:48:15.078Z,0.8
2023-02-26T11:49:24.966Z,0.9
2023-02-26T11:50:33.047Z,1.1
2023-02-26T11:51:47.911Z,1.1
2023-02-26T11:53:05.015Z,1.2
2023-02-26T11:54:11.850Z,0.9
2023-02-26T11:55:26.348Z,1.1
2023-02-26T11:56:33.222Z,1.2
2023-02-26T11:57:44.583Z,1.3
2023-02-26T11:58:55.294Z,1.2
2023-02-26T12:00:01.002Z,1.1
2023-02-26T12:01:09.044Z,1.3
2023-02-26T12:02:16.936Z,1.3
2023-02-26T12:03:26.535Z,1.3
2023-02-26T12:04:34.509Z,1.4
2023-02-26T12:05:41.426Z,1.2
2023-02-26T12:06:48.225Z,1.2
2023-02-26T12:07:55.168Z,1.3
2023-02-26T12:09:02.009Z,1.4
2023-02-26T12:10:17.033Z,1.4
2023-02-26T12:11:23.875Z,1.3
2023-02-26T12:12:38.468Z,1.6
2023-02-26T12:13:50.440Z,1.5
2023-02-26T12:15:07.510Z,1.5
2023-02-26T12:16:24.488Z,1.5
2023-02-26T12:17:42.308Z,1.6
2023-02-26T12:18:59.403Z,1.3
2023-02-26T12:20:09.551Z,1.4
2023-02-26T12:21:24.558Z,1.3
2023-02-26T12:22:38.879Z,1.3
2023-02-26T12:23:55.839Z,1.5
2023-02-26T12:25:12.752Z,1.5
2023-02-26T12:26:24.641Z,1.7
2023-02-26T12:27:39.524Z,1.7
2023-02-26T12:28:52.285Z,1.7
2023-02-26T12:30:09.283Z,1.8
2023-02-26T12:31:26.574Z,1.7
2023-02-26T12:32:38.270Z,1.7
2023-02-26T12:33:50.302Z,1.8
2023-02-26T12:35:07.268Z,1.7
2023-02-26T12:36:19.176Z,1.9
2023-02-26T12:37:31.072Z,1.8
2023-02-26T12:38:48.061Z,1.8
2023-02-26T12:39:57.489Z,1.6
2023-02-26T12:41:09.401Z,1.5
2023-02-26T12:42:21.349Z,1.6
2023-02-26T12:43:28.153Z,1.7
2023-02-26T12:44:40.048Z,1.7
2023-02-26T12:45:57.012Z,1.7
2023-02-26T12:47:11.675Z,1.8
2023-02-26T12:48:28.653Z,1.8
2023-02-26T12:49:40.577Z,1.9
2023-02-26T12:50:54.981Z,1.9
2023-02-26T12:52:12.066Z,1.9
2023-02-26T12:53:24.994Z,2
2023-02-26T12:54:36.954Z,2.1
2023-02-26T12:55:48.893Z,2
2023-02-26T12:56:58.392Z,1.9
2023-02-26T12:58:08.035Z,1.9
2023-02-26T12:59:25.170Z,1.9
2023-02-26T13:00:37.274Z,1.8
2023-02-26T13:01:56.108Z,1.5
2023-02-26T13:03:04.670Z,1.4
2023-02-26T13:04:14.530Z,1.3
2023-02-26T13:05:26.443Z,1.2
2023-02-26T13:06:41.619Z,1.4
2023-02-26T13:07:58.732Z,1.5
2023-02-26T13:09:08.310Z,1.4
2023-02-26T13:10:20.312Z,1.4
2023-02-26T13:11:36.023Z,1.4
2023-02-26T13:12:50.811Z,1.4
2023-02-26T13:14:08.354Z,1.5
2023-02-26T13:15:25.311Z,1.5
2023-02-26T13:16:42.311Z,1.5
2023-02-26T13:17:59.577Z,1.4
2023-02-26T13:19:11.690Z,1.4
2023-02-26T13:20:21.434Z,1.5
2023-02-26T13:21:28.870Z,1.5
2023-02-26T13:22:43.073Z,1.5
2023-02-26T13:23:52.542Z,1.6
2023-02-26T13:25:07.258Z,1.6
2023-02-26T13:26:24.235Z,1.3
2023-02-26T13:27:31.248Z,1.3
2023-02-26T13:28:39.332Z,1
2023-02-26T13:29:54.764Z,1.1
2023-02-26T13:31:10.112Z,0.7
2023-02-26T13:32:28.519Z,0.8
2023-02-26T13:33:36.022Z,0.8
2023-02-26T13:34:42.942Z,0.9
2023-02-26T13:35:59.923Z,0.9
2023-02-26T13:37:06.863Z,0.9
2023-02-26T13:38:18.735Z,1.1
2023-02-26T13:39:33.552Z,1.1
2023-02-26T13:40:43.579Z,1.1
2023-02-26T13:41:55.561Z,1.2
2023-02-26T13:43:07.494Z,1.2
2023-02-26T13:44:19.375Z,1
2023-02-26T13:45:36.343Z,0.9
2023-02-26T13:46:48.206Z,0.9
2023-02-26T13:47:57.875Z,1
2023-02-26T13:49:09.617Z,1.1
2023-02-26T13:50:28.123Z,1
2023-02-26T13:51:40.912Z,1
2023-02-26T13:52:50.748Z,1.1
2023-02-26T13:54:00.123Z,1.3
2023-02-26T13:55:07.096Z,1.3
2023-02-26T13:56:14.115Z,1.4
2023-02-26T13:57:21.077Z,1.3
2023-02-26T13:58:36.493Z,1.3
2023-02-26T13:59:43.505Z,1.3
2023-02-26T14:00:50.374Z,1.4
2023-02-26T14:01:59.981Z,1.3
2023-02-26T14:03:16.890Z,1.3
2023-02-26T14:04:28.891Z,1.5
2023-02-26T14:05:36.664Z,1.5
2023-02-26T14:06:51.237Z,1.3
2023-02-26T14:08:03.386Z,1.2
2023-02-26T14:09:17.996Z,1.1
2023-02-26T14:10:24.903Z,1.1
2023-02-26T14:11:38.796Z,1
2023-02-26T14:12:45.688Z,1.1
2023-02-26T14:13:54.476Z,1
2023-02-26T14:15:09.288Z,1.1
2023-02-26T14:16:16.306Z,1
2023-02-26T14:17:30.043Z,1.2
2023-02-26T14:18:47.026Z,1.3
2023-02-26T14:19:54.016Z,1.3
2023-02-26T14:21:00.808Z,1.2
2023-02-26T14:22:17.978Z,1.2
2023-02-26T14:23:25.869Z,1.4
2023-02-26T14:24:32.839Z,1.3
2023-02-26T14:25:42.453Z,1.5
2023-02-26T14:26:52.033Z,1.4
2023-02-26T14:28:03.843Z,1.4
2023-02-26T14:29:20.749Z,1
2023-02-26T14:30:30.928Z,1
2023-02-26T14:31:38.453Z,1
2023-02-26T14:32:53.051Z,1.3
2023-02-26T14:34:05.023Z,1.4
2023-02-26T14:35:11.901Z,1.3
2023-02-26T14:36:23.986Z,1.2
2023-02-26T14:37:35.913Z,1.3
2023-02-26T14:38:44.488Z,1.1
2023-02-26T14:39:51.379Z,1.3
2023-02-26T14:41:02.577Z,1.3
2023-02-26T14:42:09.432Z,1.2
2023-02-26T14:43:21.343Z,1.4
2023-02-26T14:44:38.260Z,1.5
2023-02-26T14:45:48.277Z,1.3
2023-02-26T14:46:55.342Z,1
2023-02-26T14:48:02.599Z,1.2
2023-02-26T14:49:10.027Z,1.3
2023-02-26T14:50:21.929Z,1.4
2023-02-26T14:51:29.040Z,1.3
2023-02-26T14:52:45.765Z,1.2
2023-02-26T14:54:01.179Z,1.2
2023-02-26T14:55:13.063Z,1.2
2023-02-26T14:56:24.977Z,1.1
2023-02-26T14:57:34.433Z,1.1
2023-02-26T14:58:50.110Z,1.3
2023-02-26T15:00:04.916Z,1.3
2023-02-26T15:01:32.571Z,1.5
2023-02-26T15:02:36.624Z,1.5
2023-02-26T15:03:49.354Z,1.4
2023-02-26T15:05:06.298Z,1.3
2023-02-26T15:06:23.340Z,1
2023-02-26T15:07:35.189Z,1.2
2023-02-26T15:08:44.605Z,1.3
2023-02-26T15:10:02.414Z,1.2
2023-02-26T15:11:19.465Z,1.4
2023-02-26T15:12:32.453Z,1.4
2023-02-26T15:13:44.389Z,1.2
2023-02-26T15:15:01.369Z,1.2
2023-02-26T15:16:16.059Z,1.4
2023-02-26T15:17:32.909Z,1.2
2023-02-26T15:18:45.570Z,0.9
2023-02-26T15:19:52.470Z,1
2023-02-26T15:21:01.948Z,1
2023-02-26T15:22:19.616Z,1.2
2023-02-26T15:23:34.458Z,1.2
2023-02-26T15:24:46.699Z,1.3
2023-02-26T15:25:53.607Z,1
2023-02-26T15:27:00.511Z,1
2023-02-26T15:28:07.437Z,1
2023-02-26T15:29:14.246Z,1.1
2023-02-26T15:30:21.120Z,1.3
2023-02-26T15:31:28.098Z,1.3
2023-02-26T15:32:34.829Z,1.3
2023-02-26T15:33:41.758Z,1.3
2023-02-26T15:34:49.489Z,1.3
2023-02-26T15:36:03.877Z,1.4
2023-02-26T15:37:11.765Z,1.5
2023-02-26T15:38:18.653Z,1.2
2023-02-26T15:39:26.441Z,1.2
2023-02-26T15:40:33.332Z,0.9
2023-02-26T15:41:40.160Z,1.3
2023-02-26T15:42:46.986Z,1.4
2023-02-26T15:43:56.398Z,1.4
2023-02-26T15:45:08.361Z,1.3
2023-02-26T15:46:16.196Z,1.2
2023-02-26T15:47:23.090Z,0.8
2023-02-26T15:48:31.984Z,0.9
2023-02-26T15:49:38.864Z,1.1
2023-02-26T15:50:45.755Z,1.2
2023-02-26T15:51:52.552Z,1
2023-02-26T15:53:00.160Z,1.2
2023-02-26T15:54:06.992Z,1.3
2023-02-26T15:55:13.804Z,1.4
2023-02-26T15:56:20.737Z,1.4
2023-02-26T15:57:27.639Z,1.4
2023-02-26T15:58:36.080Z,1.4
2023-02-26T15:59:42.935Z,1.3
2023-02-26T16:00:50.683Z,1.3
2023-02-26T16:01:57.652Z,1.4